createdAt,value
2023-04-14T00:01:50.662Z,91.30
2023-04-14T00:04:20.216Z,91.20
2023-04-14T00:06:49.255Z,91.30
2023-04-14T00:09:18.251Z,91.40
2023-04-14T00:11:49.684Z,91.40
2023-04-14T00:14:18.885Z,91.40
2023-04-14T00:16:47.947Z,91.30
2023-04-14T00:19:17.034Z,91.30
2023-04-14T00:21:46.014Z,91.40
2023-04-14T00:24:15.271Z,91.40
2023-04-14T00:26:44.226Z,91.40
2023-04-14T00:29:14.700Z,91.40
2023-04-14T00:31:44.372Z,91.40
2023-04-14T00:34:13.676Z,91.50
2023-04-14T00:36:42.634Z,91.60
2023-04-14T00:39:11.540Z,91.70
2023-04-14T00:41:40.633Z,91.80
2023-04-14T00:44:09.562Z,91.90
2023-04-14T00:46:42.189Z,92.00
2023-04-14T00:49:11.516Z,91.90
2023-04-14T00:51:40.598Z,92.00
2023-04-14T00:54:11.136Z,92.10
2023-04-14T00:56:40.960Z,92.20
2023-04-14T00:59:11.401Z,92.40
2023-04-14T01:01:48.056Z,92.50
2023-04-14T01:04:23.338Z,92.50
2023-04-14T01:06:54.326Z,92.60
2023-04-14T01:09:41.614Z,92.50
2023-04-14T01:12:23.284Z,92.60
2023-04-14T01:15:06.977Z,92.70
2023-04-14T01:17:45.724Z,92.90
2023-04-14T01:20:24.447Z,93.00
2023-04-14T01:22:59.437Z,93.50
2023-04-14T01:25:56.788Z,93.50
2023-04-14T01:28:43.940Z,93.60
2023-04-14T01:31:34.052Z,93.80
2023-04-14T01:34:26.813Z,93.90
2023-04-14T01:37:03.844Z,93.90
2023-04-14T01:39:37.235Z,94.00
2023-04-14T01:42:10.674Z,93.90
2023-04-14T01:44:42.089Z,93.90
2023-04-14T01:47:16.925Z,94.00
2023-04-14T01:49:49.030Z,94.10
2023-04-14T01:52:20.649Z,94.00
2023-04-14T01:54:53.876Z,94.20
2023-04-14T01:57:24.343Z,94.30
2023-04-14T01:59:55.290Z,94.30
2023-04-14T02:02:27.783Z,94.30
2023-04-14T02:04:58.553Z,94.30
2023-04-14T02:07:29.628Z,93.70
2023-04-14T02:10:00.046Z,93.60
2023-04-14T02:12:31.784Z,93.70
2023-04-14T02:15:03.047Z,93.70
2023-04-14T02:17:36.315Z,93.60
2023-04-14T02:20:07.562Z,93.50
2023-04-14T02:22:36.750Z,93.70
2023-04-14T02:25:06.062Z,94.00
2023-04-14T02:27:39.706Z,94.10
2023-04-14T02:30:13.881Z,94.10
2023-04-14T02:32:51.252Z,94.10
2023-04-14T02:35:27.110Z,94.00
2023-04-14T02:38:05.546Z,93.90
2023-04-14T02:40:39.729Z,94.10
2023-04-14T02:43:14.736Z,94.10
2023-04-14T02:45:47.262Z,94.10
2023-04-14T02:48:20.035Z,94.10
2023-04-14T02:50:52.114Z,94.20
2023-04-14T02:53:26.856Z,94.30
2023-04-14T02:56:19.201Z,94.40
2023-04-14T02:58:50.529Z,94.40
2023-04-14T03:01:21.539Z,94.40
2023-04-14T03:03:56.421Z,94.40
2023-04-14T03:06:27.638Z,94.40
2023-04-14T03:08:59.431Z,94.50
2023-04-14T03:11:30.298Z,94.50
2023-04-14T03:14:00.306Z,94.50
2023-04-14T03:16:31.362Z,94.40
2023-04-14T03:19:05.487Z,94.50
2023-04-14T03:21:55.502Z,94.70
2023-04-14T03:24:27.607Z,94.80
2023-04-14T03:27:02.608Z,95.10
2023-04-14T03:29:38.072Z,94.90
2023-04-14T03:32:08.770Z,94.80
2023-04-14T03:34:46.727Z,94.80
2023-04-14T03:37:19.009Z,95.00
2023-04-14T03:39:52.224Z,95.20
2023-04-14T03:42:22.712Z,95.30
2023-04-14T03:44:54.506Z,95.30
2023-04-14T03:47:24.904Z,95.40
2023-04-14T03:49:59.887Z,95.50
2023-04-14T03:52:32.651Z,95.50
2023-04-14T03:55:06.784Z,95.90
2023-04-14T03:57:40.891Z,95.50
2023-04-14T04:00:14.249Z,96.30
2023-04-14T04:03:02.650Z,96.90
2023-04-14T04:05:33.921Z,96.80
2023-04-14T04:08:04.649Z,96.50
2023-04-14T04:10:36.270Z,96.10
2023-04-14T04:13:08.609Z,95.80
2023-04-14T04:15:39.304Z,95.40
2023-04-14T04:18:10.039Z,95.20
2023-04-14T04:20:43.779Z,95.30
2023-04-14T04:23:13.831Z,95.20
2023-04-14T04:25:43.642Z,95.30
2023-04-14T04:28:31.075Z,95.30
2023-04-14T04:31:01.820Z,95.40
2023-04-14T04:33:32.888Z,95.50
2023-04-14T04:36:06.735Z,95.90
2023-04-14T04:38:41.338Z,96.00
2023-04-14T04:41:21.785Z,96.40
2023-04-14T04:43:51.958Z,97.10
2023-04-14T04:46:37.727Z,97.10
2023-04-14T04:49:06.921Z,97.10
2023-04-14T04:51:37.702Z,96.90
2023-04-14T04:54:07.246Z,96.70
2023-04-14T04:56:36.529Z,96.10
2023-04-14T04:59:06.075Z,95.40
2023-04-14T05:01:35.291Z,94.80
2023-04-14T05:04:04.444Z,94.50
2023-04-14T05:06:38.597Z,94.20
2023-04-14T05:09:07.927Z,93.50
2023-04-14T05:11:37.086Z,93.00
2023-04-14T05:14:26.297Z,93.20
2023-04-14T05:16:57.159Z,92.70
2023-04-14T05:19:26.210Z,92.50
2023-04-14T05:21:57.608Z,92.70
2023-04-14T05:24:26.764Z,93.00
2023-04-14T05:27:13.047Z,92.80
2023-04-14T05:29:43.593Z,92.60
2023-04-14T05:32:14.694Z,92.90
2023-04-14T05:34:46.109Z,92.50
2023-04-14T05:37:17.190Z,91.70
2023-04-14T05:39:46.495Z,91.10
2023-04-14T05:42:15.701Z,90.10
2023-04-14T05:44:51.766Z,87.30
2023-04-14T05:47:22.091Z,86.50
2023-04-14T05:50:00.049Z,84.90
2023-04-14T05:52:31.011Z,83.90
2023-04-14T05:55:00.029Z,83.00
2023-04-14T05:57:28.994Z,82.30
2023-04-14T05:59:58.410Z,81.60
2023-04-14T06:02:31.942Z,81.70
2023-04-14T06:05:02.525Z,82.30
2023-04-14T06:07:33.066Z,82.50
2023-04-14T06:10:02.388Z,82.00
2023-04-14T06:12:42.490Z,81.00
2023-04-14T06:15:11.858Z,79.20
2023-04-14T06:17:41.234Z,77.90
2023-04-14T06:20:16.241Z,77.10
2023-04-14T06:22:47.940Z,76.70
2023-04-14T06:25:17.174Z,75.00
2023-04-14T06:27:46.002Z,74.80
2023-04-14T06:30:17.318Z,74.10
2023-04-14T06:32:46.746Z,74.00
2023-04-14T06:35:32.259Z,74.10
2023-04-14T06:38:03.321Z,72.40
2023-04-14T06:40:32.375Z,70.10
2023-04-14T06:43:02.530Z,68.80
2023-04-14T06:45:31.410Z,69.10
2023-04-14T06:48:00.551Z,68.00
2023-04-14T06:50:29.452Z,66.70
2023-04-14T06:52:58.372Z,65.70
2023-04-14T06:55:30.418Z,65.10
2023-04-14T06:58:01.066Z,65.00
2023-04-14T07:00:30.439Z,64.30
2023-04-14T07:02:59.444Z,63.80
2023-04-14T07:05:28.451Z,62.30
2023-04-14T07:07:57.636Z,62.40
2023-04-14T07:10:28.120Z,61.90
2023-04-14T07:12:57.048Z,60.90
2023-04-14T07:15:54.107Z,61.40
2023-04-14T07:18:26.538Z,61.40
2023-04-14T07:20:55.920Z,61.40
2023-04-14T07:23:24.863Z,61.70
2023-04-14T07:25:56.842Z,60.80
2023-04-14T07:28:27.053Z,61.10
2023-04-14T07:30:56.964Z,60.90
2023-04-14T07:33:27.223Z,59.60
2023-04-14T07:36:01.923Z,57.80
2023-04-14T07:38:38.372Z,55.50
2023-04-14T07:41:09.993Z,53.90
2023-04-14T07:43:40.266Z,53.70
2023-04-14T07:46:28.045Z,53.70
2023-04-14T07:48:57.144Z,52.20
2023-04-14T07:51:26.310Z,50.70
2023-04-14T07:53:59.906Z,50.20
2023-04-14T07:56:34.663Z,47.70
2023-04-14T07:59:09.076Z,47.30
2023-04-14T08:01:39.015Z,47.50
2023-04-14T08:04:08.387Z,46.90
2023-04-14T08:06:37.885Z,46.40
2023-04-14T08:09:07.202Z,44.70
2023-04-14T08:11:37.603Z,44.90
2023-04-14T08:14:06.661Z,46.00
2023-04-14T08:16:37.000Z,44.60
2023-04-14T08:19:06.485Z,45.60
2023-04-14T08:21:35.474Z,45.30
2023-04-14T08:24:06.701Z,43.60
2023-04-14T08:26:37.228Z,43.40
2023-04-14T08:29:06.356Z,43.30
2023-04-14T08:31:35.455Z,44.10
2023-04-14T08:34:04.670Z,43.20
2023-04-14T08:36:33.655Z,42.80
2023-04-14T08:39:02.726Z,42.40
2023-04-14T08:41:36.581Z,42.80
2023-04-14T08:44:05.713Z,42.80
2023-04-14T08:46:35.087Z,43.10
2023-04-14T08:49:06.670Z,42.90
2023-04-14T08:51:37.572Z,43.40
2023-04-14T08:54:25.355Z,42.30
2023-04-14T08:56:58.887Z,43.10
2023-04-14T08:59:30.316Z,43.00
2023-04-14T09:02:07.210Z,43.50
2023-04-14T09:04:55.490Z,42.60
2023-04-14T09:07:24.694Z,42.80
2023-04-14T09:09:53.858Z,41.10
2023-04-14T09:12:27.506Z,41.10
2023-04-14T09:14:58.363Z,40.10
2023-04-14T09:17:29.900Z,40.40
2023-04-14T09:20:36.434Z,40.20
2023-04-14T09:22:48.574Z,39.80
2023-04-14T09:25:20.029Z,39.60
2023-04-14T09:27:51.571Z,38.00
2023-04-14T09:30:21.077Z,38.50
2023-04-14T09:32:53.800Z,38.70
2023-04-14T09:35:23.140Z,38.40
2023-04-14T09:37:52.292Z,36.80
2023-04-14T09:40:31.326Z,37.40
2023-04-14T09:43:02.928Z,36.40
2023-04-14T09:45:48.049Z,35.20
2023-04-14T09:48:17.130Z,33.40
2023-04-14T09:51:00.136Z,34.00
2023-04-14T09:53:33.028Z,33.50
2023-04-14T09:56:05.197Z,34.80
2023-04-14T09:58:37.770Z,34.60
2023-04-14T10:01:13.053Z,34.60
2023-04-14T10:03:43.638Z,34.40
2023-04-14T10:06:21.074Z,33.60
2023-04-14T10:08:51.823Z,32.30
2023-04-14T10:11:22.055Z,32.50
2023-04-14T10:14:11.039Z,32.80
2023-04-14T10:16:40.214Z,32.80
2023-04-14T10:19:09.218Z,33.70
2023-04-14T10:21:38.098Z,33.60
2023-04-14T10:24:07.420Z,33.40
2023-04-14T10:26:37.412Z,32.70
2023-04-14T10:29:06.737Z,33.00
2023-04-14T10:31:42.925Z,32.30
2023-04-14T10:34:14.242Z,31.70
2023-04-14T10:36:43.925Z,32.00
2023-04-14T10:39:14.275Z,32.30
2023-04-14T10:41:50.472Z,32.70
2023-04-14T10:44:27.305Z,32.20
2023-04-14T10:46:58.156Z,31.40
2023-04-14T10:49:31.958Z,32.30
2023-04-14T10:52:03.432Z,33.30
2023-04-14T10:54:53.697Z,33.50
2023-04-14T10:57:24.471Z,33.00
2023-04-14T10:59:57.392Z,33.30
2023-04-14T11:02:30.343Z,32.90
2023-04-14T11:05:01.287Z,33.80
2023-04-14T11:07:31.493Z,33.20
2023-04-14T11:10:05.366Z,32.50
2023-04-14T11:12:44.765Z,31.50
2023-04-14T11:15:14.239Z,30.50
2023-04-14T11:17:45.566Z,31.30
2023-04-14T11:20:18.386Z,31.30
2023-04-14T11:22:48.907Z,30.30
2023-04-14T11:25:23.026Z,30.10
2023-04-14T11:27:53.465Z,29.60
2023-04-14T11:30:23.089Z,28.10
2023-04-14T11:32:54.951Z,27.70
2023-04-14T11:35:26.440Z,27.60
2023-04-14T11:37:56.263Z,27.80
2023-04-14T11:40:26.702Z,28.10
2023-04-14T11:42:57.473Z,28.30
2023-04-14T11:45:45.380Z,28.70
2023-04-14T11:48:18.513Z,28.90
2023-04-14T11:51:06.477Z,27.70
2023-04-14T11:53:35.460Z,28.00
2023-04-14T11:56:04.613Z,27.70
2023-04-14T11:58:34.092Z,28.10
2023-04-14T12:01:03.061Z,27.50
2023-04-14T12:03:35.880Z,27.80
2023-04-14T12:06:05.909Z,28.60
2023-04-14T12:08:35.212Z,28.20
2023-04-14T12:11:14.825Z,28.10
2023-04-14T12:13:44.716Z,28.70
2023-04-14T12:16:15.234Z,28.80
2023-04-14T12:18:46.173Z,29.00
2023-04-14T12:21:34.144Z,29.40
2023-04-14T12:24:03.122Z,29.40
2023-04-14T12:26:32.803Z,29.90
2023-04-14T12:29:02.529Z,30.50
2023-04-14T12:31:32.090Z,30.90
2023-04-14T12:34:06.694Z,31.50
2023-04-14T12:39:08.276Z,32.00
2023-04-14T12:41:42.220Z,32.40
2023-04-14T12:44:16.923Z,32.50
2023-04-14T12:46:50.192Z,32.60
2023-04-14T12:49:34.730Z,32.60
2023-04-14T12:52:04.091Z,33.10
2023-04-14T12:54:53.220Z,33.70
2023-04-14T12:57:22.975Z,34.30
2023-04-14T12:59:52.172Z,34.60
2023-04-14T13:02:24.640Z,35.30
2023-04-14T13:04:55.335Z,35.40
2023-04-14T13:07:24.690Z,35.80
2023-04-14T13:09:54.323Z,36.50
2023-04-14T13:12:23.360Z,36.30
2023-04-14T13:14:53.239Z,36.20
2023-04-14T13:17:22.428Z,36.20
2023-04-14T13:19:51.712Z,36.60
2023-04-14T13:22:22.045Z,36.40
2023-04-14T13:24:51.971Z,36.60
2023-04-14T13:27:21.432Z,36.90
2023-04-14T13:29:50.758Z,37.30
2023-04-14T13:32:19.915Z,37.50
2023-04-14T13:34:49.202Z,38.10
2023-04-14T13:37:19.598Z,38.70
2023-04-14T13:39:50.310Z,39.30
2023-04-14T13:42:19.223Z,39.40
2023-04-14T13:44:48.349Z,40.00
2023-04-14T13:47:19.040Z,40.50
2023-04-14T13:49:48.035Z,40.80
2023-04-14T13:52:17.249Z,41.00
2023-04-14T13:54:46.206Z,41.10
2023-04-14T13:57:16.698Z,40.90
2023-04-14T13:59:46.333Z,40.60
2023-04-14T14:02:15.725Z,40.90
2023-04-14T14:04:44.970Z,40.70
2023-04-14T14:07:14.100Z,40.20
2023-04-14T14:09:44.560Z,39.70
2023-04-14T14:12:17.277Z,40.00
2023-04-14T14:14:47.238Z,40.00
2023-04-14T14:17:17.182Z,40.20
2023-04-14T14:19:46.198Z,40.60
2023-04-14T14:22:15.116Z,40.80
2023-04-14T14:24:44.084Z,40.80
2023-04-14T14:27:13.078Z,40.80
2023-04-14T14:29:43.530Z,40.50
2023-04-14T14:32:12.617Z,40.90
2023-04-14T14:34:41.540Z,41.40
2023-04-14T14:37:10.487Z,41.60
2023-04-14T14:39:39.672Z,41.60
2023-04-14T14:42:11.986Z,41.70
2023-04-14T14:44:42.496Z,41.70
2023-04-14T14:47:11.510Z,41.70
2023-04-14T14:49:46.196Z,41.60
2023-04-14T14:52:29.552Z,41.70
2023-04-14T14:54:58.603Z,41.60
2023-04-14T14:57:28.654Z,41.60
2023-04-14T14:59:59.187Z,41.80
2023-04-14T15:02:28.360Z,42.10
2023-04-14T15:04:57.483Z,42.60
2023-04-14T15:07:26.485Z,42.90
2023-04-14T15:09:55.668Z,43.30
2023-04-14T15:12:24.649Z,43.30
2023-04-14T15:14:53.684Z,43.80
2023-04-14T15:17:24.392Z,43.90
2023-04-14T15:19:53.555Z,44.60
2023-04-14T15:22:22.723Z,44.20
2023-04-14T15:24:51.822Z,44.30
2023-04-14T15:27:20.789Z,44.30
2023-04-14T15:29:49.796Z,44.40
2023-04-14T15:32:24.501Z,44.60
2023-04-14T15:34:55.948Z,44.70
2023-04-14T15:37:26.342Z,45.00
2023-04-14T15:39:55.381Z,45.20
2023-04-14T15:42:24.357Z,45.00
2023-04-14T15:44:53.382Z,45.80
2023-04-14T15:47:22.381Z,45.10
2023-04-14T15:50:00.616Z,45.40
2023-04-14T15:52:40.499Z,45.60
2023-04-14T15:55:12.048Z,45.90
2023-04-14T15:57:41.087Z,46.10
2023-04-14T16:00:11.228Z,46.00
2023-04-14T16:02:46.216Z,46.20
2023-04-14T16:05:15.606Z,45.90
2023-04-14T16:07:46.773Z,46.20
2023-04-14T16:10:15.921Z,46.50
2023-04-14T16:12:45.021Z,46.80
2023-04-14T16:15:14.163Z,47.30
2023-04-14T16:17:43.796Z,47.50
2023-04-14T16:20:13.819Z,47.40
2023-04-14T16:22:42.709Z,47.60
2023-04-14T16:25:13.421Z,47.50
2023-04-14T16:27:42.940Z,47.40
2023-04-14T16:30:13.126Z,47.70
2023-04-14T16:32:42.224Z,47.70
2023-04-14T16:35:12.119Z,47.70
2023-04-14T16:37:41.260Z,47.60
2023-04-14T16:40:12.821Z,47.70
2023-04-14T16:42:41.846Z,48.40
2023-04-14T16:45:11.544Z,48.90
2023-04-14T16:47:40.930Z,49.00
2023-04-14T16:50:10.555Z,49.90
2023-04-14T16:52:39.453Z,49.60
2023-04-14T16:55:09.146Z,49.70
2023-04-14T16:57:39.526Z,50.00
2023-04-14T17:00:12.413Z,50.40
2023-04-14T17:02:42.945Z,51.00
2023-04-14T17:05:16.374Z,51.40
2023-04-14T17:07:47.094Z,51.90
2023-04-14T17:10:16.486Z,52.30
2023-04-14T17:12:47.448Z,52.50
2023-04-14T17:15:17.451Z,52.80
2023-04-14T17:17:46.753Z,53.00
2023-04-14T17:20:16.362Z,53.00
2023-04-14T17:23:04.164Z,53.20
2023-04-14T17:25:35.885Z,53.50
2023-04-14T17:28:11.420Z,53.70
2023-04-14T17:30:40.850Z,54.30
2023-04-14T17:33:10.830Z,54.30
2023-04-14T17:35:39.972Z,54.30
2023-04-14T17:38:09.173Z,54.60
2023-04-14T17:40:38.153Z,55.20
2023-04-14T17:43:08.758Z,55.40
2023-04-14T17:45:40.298Z,55.70
2023-04-14T17:48:09.791Z,56.10
2023-04-14T17:50:39.077Z,56.80
2023-04-14T17:53:09.131Z,57.20
2023-04-14T17:55:38.965Z,57.30
2023-04-14T17:58:10.402Z,57.60
2023-04-14T18:00:40.508Z,57.90
2023-04-14T18:03:09.818Z,57.80
2023-04-14T18:05:38.997Z,58.00
2023-04-14T18:08:08.455Z,58.20
2023-04-14T18:10:38.246Z,58.40
2023-04-14T18:13:09.899Z,58.60
2023-04-14T18:15:42.836Z,59.10
2023-04-14T18:18:12.018Z,59.80
2023-04-14T18:20:41.664Z,60.10
2023-04-14T18:23:10.850Z,60.30
2023-04-14T18:28:13.738Z,61.00
2023-04-14T18:30:42.883Z,61.70
2023-04-14T18:33:15.372Z,62.40
2023-04-14T18:35:44.544Z,63.20
2023-04-14T18:38:13.924Z,63.60
2023-04-14T18:40:42.920Z,64.10
2023-04-14T18:43:22.087Z,64.50
2023-04-14T18:45:51.742Z,65.50
2023-04-14T18:48:20.930Z,65.70
2023-04-14T18:50:57.582Z,65.80
2023-04-14T18:53:26.838Z,67.30
2023-04-14T18:55:55.895Z,66.80
2023-04-14T18:58:26.348Z,67.40
2023-04-14T19:00:55.534Z,67.80
2023-04-14T19:03:24.691Z,68.00
2023-04-14T19:05:55.564Z,68.40
2023-04-14T19:08:43.276Z,68.70
2023-04-14T19:11:12.454Z,68.80
2023-04-14T19:13:43.979Z,69.20
2023-04-14T19:16:14.043Z,69.70
2023-04-14T19:19:02.210Z,69.70
2023-04-14T19:21:32.204Z,69.50
2023-04-14T19:24:01.182Z,69.50
2023-04-14T19:26:31.033Z,70.10
2023-04-14T19:29:01.838Z,70.20
2023-04-14T19:31:31.566Z,71.00
2023-04-14T19:34:00.855Z,71.40
2023-04-14T19:36:32.519Z,71.80
2023-04-14T19:39:01.925Z,72.10
2023-04-14T19:41:31.125Z,72.40
2023-04-14T19:44:04.405Z,72.80
2023-04-14T19:46:35.893Z,73.20
2023-04-14T19:49:05.710Z,73.50
2023-04-14T19:51:36.876Z,73.90
2023-04-14T19:54:07.647Z,73.90
2023-04-14T19:56:37.120Z,74.30
2023-04-14T19:59:08.451Z,74.50
2023-04-14T20:01:38.604Z,74.50
2023-04-14T20:04:12.334Z,74.60
2023-04-14T20:06:43.071Z,74.70
2023-04-14T20:09:12.374Z,75.00
2023-04-14T20:11:41.296Z,74.90
2023-04-14T20:14:11.659Z,74.60
2023-04-14T20:16:40.889Z,74.50
2023-04-14T20:19:10.210Z,74.30
2023-04-14T20:21:40.010Z,74.40
2023-04-14T20:24:08.998Z,74.70
2023-04-14T20:26:42.791Z,74.70
2023-04-14T20:29:13.470Z,74.80
2023-04-14T20:31:44.419Z,75.20
2023-04-14T20:34:13.692Z,75.40
2023-04-14T20:36:45.134Z,75.50
2023-04-14T20:39:14.136Z,75.40
2023-04-14T20:41:43.249Z,75.60
2023-04-14T20:44:17.317Z,76.00
2023-04-14T20:46:46.910Z,76.60
2023-04-14T20:49:15.846Z,76.10
2023-04-14T20:51:47.143Z,76.30
2023-04-14T20:54:16.635Z,76.50
2023-04-14T20:56:45.750Z,76.70
2023-04-14T20:59:16.801Z,76.90
2023-04-14T21:01:48.657Z,77.10
2023-04-14T21:04:19.479Z,77.20
2023-04-14T21:06:49.374Z,77.40
2023-04-14T21:09:18.876Z,77.80
2023-04-14T21:11:47.979Z,77.90
2023-04-14T21:15:30.528Z,78.30
2023-04-14T21:17:28.003Z,78.80
2023-04-14T21:19:57.725Z,79.20
2023-04-14T21:22:58.778Z,79.60
2023-04-14T21:25:33.933Z,79.90
2023-04-14T21:28:05.330Z,80.10
2023-04-14T21:30:38.490Z,80.20
2023-04-14T21:33:08.950Z,80.50
2023-04-14T21:35:38.236Z,80.80
2023-04-14T21:38:07.846Z,80.90
2023-04-14T21:40:37.445Z,81.10
2023-04-14T21:43:08.109Z,81.40
2023-04-14T21:45:39.782Z,81.40
2023-04-14T21:48:09.081Z,81.80
2023-04-14T21:50:40.354Z,81.80
2023-04-14T21:53:10.886Z,82.10
2023-04-14T21:55:40.726Z,82.40
2023-04-14T21:58:11.021Z,82.20
2023-04-14T22:00:42.537Z,82.50
2023-04-14T22:03:12.204Z,82.60
2023-04-14T22:05:41.440Z,82.50
2023-04-14T22:08:10.726Z,82.50
2023-04-14T22:10:43.833Z,83.00
2023-04-14T22:13:13.267Z,83.20
2023-04-14T22:15:45.052Z,83.30
2023-04-14T22:18:14.106Z,83.30
2023-04-14T22:20:43.199Z,83.70
2023-04-14T22:23:12.526Z,83.90
2023-04-14T22:25:41.619Z,83.80
2023-04-14T22:28:11.817Z,83.80
2023-04-14T22:31:01.310Z,83.50
2023-04-14T22:33:30.445Z,83.40
2023-04-14T22:36:01.623Z,83.50
2023-04-14T22:38:31.095Z,83.90
2023-04-14T22:41:00.171Z,83.90
2023-04-14T22:43:29.997Z,83.70
2023-04-14T22:46:00.615Z,83.80
2023-04-14T22:48:29.604Z,84.30
2023-04-14T22:50:58.617Z,84.10
2023-04-14T22:53:30.589Z,84.20
2023-04-14T22:55:59.561Z,84.50
2023-04-14T22:58:32.709Z,84.60
2023-04-14T23:01:12.039Z,85.00
2023-04-14T23:03:51.272Z,85.00
2023-04-14T23:06:28.857Z,84.90
2023-04-14T23:08:57.985Z,84.70
2023-04-14T23:11:27.323Z,84.70
2023-04-14T23:13:56.851Z,84.30
2023-04-14T23:16:27.862Z,84.00
2023-04-14T23:18:58.361Z,84.10
2023-04-14T23:21:28.265Z,83.90
2023-04-14T23:23:58.326Z,83.50
2023-04-14T23:26:28.722Z,83.20
2023-04-14T23:28:58.020Z,83.20
2023-04-14T23:31:29.002Z,83.30
2023-04-14T23:33:57.988Z,83.40
2023-04-14T23:36:27.011Z,83.50
2023-04-14T23:38:56.347Z,84.20
2023-04-14T23:41:25.635Z,83.10
2023-04-14T23:43:54.798Z,82.90
2023-04-14T23:46:24.043Z,83.30
2023-04-14T23:48:54.594Z,83.80
2023-04-14T23:51:24.787Z,84.10
2023-04-14T23:53:53.903Z,84.30
2023-04-14T23:56:22.924Z,84.40
2023-04-14T23:58:52.289Z,84.00
